PASV/SVW METAR and TAF weather

Enter ICAO airport designator
Station Type Date Time Source
PASV METAR 2022/08/12 13:55 UTC NOAA

PASV 121355Z AUTO 00000KT 10SM BKN060 12/10 A2983 RMK AO2 SLP097 T01180102 $


Station Type Date Time Source
PASV Decoded METAR 2022/08/12 13:55 UTC NOAA

Sparrevohn Airways Facilities Sector, AK, United States (PASV) 61-06N 155-34W
Aug 12, 2022 - 09:55 AM EDT / 2022.08.12 1355 UTC
Wind: Calm:0
Visibility: 10 mile(s):0
Sky conditions: mostly cloudy
Temperature: 53.2 F (11.8 C)
Dew Point: 50.4 F (10.2 C)
Relative Humidity: 89%
Pressure (altimeter): 29.83 in. Hg (1010 hPa)
ob: PASV 121355Z AUTO 00000KT 10SM BKN060 12/10 A2983 RMK AO2 SLP097 T01180102
cycle: 14

Station Type Date Time Source
PASV TAF 2012/01/12 14:57 UTC NOAA

TAF
AMD PASV 1214/1320 33010G15KT 4800 -SN BLSN SCT003 SCT110 QNH2984INS
BECMG 1221/1222 VRB06KT 9999 NSW FEW010 SCT110 QNH3000INS LIMITED METWATCH TM25/1300Z TM37/1315Z
AMD 121453

Example: see airport list